sensor_id;sensor_type;location;lat;lon;timestamp;temperature;humidity
1594;DHT22;790;47.000;16.084;2024-03-07T00:04:31;4.20;99.90
1594;DHT22;790;47.000;16.084;2024-03-07T00:10:53;4.10;99.90
1594;DHT22;790;47.000;16.084;2024-03-07T00:17:17;4.00;99.90
1594;DHT22;790;47.000;16.084;2024-03-07T00:23:39;4.00;99.90
1594;DHT22;790;47.000;16.084;2024-03-07T00:30:02;4.00;99.90
1594;DHT22;790;47.000;16.084;2024-03-07T00:36:28;4.10;99.90
1594;DHT22;790;47.000;16.084;2024-03-07T00:42:50;4.10;99.90
1594;DHT22;790;47.000;16.084;2024-03-07T00:49:13;4.20;99.90
1594;DHT22;790;47.000;16.084;2024-03-07T01:00:31;3.90;99.90
1594;DHT22;790;47.000;16.084;2024-03-07T01:06:53;4.10;99.90
1594;DHT22;790;47.000;16.084;2024-03-07T01:13:15;4.10;99.90
1594;DHT22;790;47.000;16.084;2024-03-07T01:19:42;4.00;99.90
1594;DHT22;790;47.000;16.084;2024-03-07T01:26:14;4.10;99.90
1594;DHT22;790;47.000;16.084;2024-03-07T01:32:36;4.10;99.90
1594;DHT22;790;47.000;16.084;2024-03-07T01:39:01;4.00;99.90
1594;DHT22;790;47.000;16.084;2024-03-07T01:45:24;4.10;99.90
1594;DHT22;790;47.000;16.084;2024-03-07T01:51:46;4.00;99.90
1594;DHT22;790;47.000;16.084;2024-03-07T02:03:05;3.80;99.90
1594;DHT22;790;47.000;16.084;2024-03-07T02:09:29;3.70;99.90
1594;DHT22;790;47.000;16.084;2024-03-07T02:16:01;3.80;99.90
1594;DHT22;790;47.000;16.084;2024-03-07T02:22:26;3.80;99.90
1594;DHT22;790;47.000;16.084;2024-03-07T02:28:48;3.60;99.90
1594;DHT22;790;47.000;16.084;2024-03-07T02:35:11;3.50;99.90
1594;DHT22;790;47.000;16.084;2024-03-07T02:41:37;3.50;99.90
1594;DHT22;790;47.000;16.084;2024-03-07T02:48:00;3.50;99.90
1594;DHT22;790;47.000;16.084;2024-03-07T02:54:22;3.50;99.90
1594;DHT22;790;47.000;16.084;2024-03-07T03:05:39;3.10;99.90
1594;DHT22;790;47.000;16.084;2024-03-07T03:12:01;3.00;99.90
1594;DHT22;790;47.000;16.084;2024-03-07T03:18:23;3.00;99.90
1594;DHT22;790;47.000;16.084;2024-03-07T03:24:47;3.10;99.90
1594;DHT22;790;47.000;16.084;2024-03-07T03:31:08;3.30;99.90
1594;DHT22;790;47.000;16.084;2024-03-07T03:37:30;3.50;99.90
1594;DHT22;790;47.000;16.084;2024-03-07T03:43:53;3.70;99.90
1594;DHT22;790;47.000;16.084;2024-03-07T03:50:15;3.80;99.90
1594;DHT22;790;47.000;16.084;2024-03-07T03:56:38;4.00;99.90
1594;DHT22;790;47.000;16.084;2024-03-07T04:07:46;4.90;99.90
1594;DHT22;790;47.000;16.084;2024-03-07T04:14:08;5.40;99.90
1594;DHT22;790;47.000;16.084;2024-03-07T04:20:31;5.80;99.90
1594;DHT22;790;47.000;16.084;2024-03-07T04:26:55;6.00;99.90
1594;DHT22;790;47.000;16.084;2024-03-07T04:33:16;6.20;99.90
1594;DHT22;790;47.000;16.084;2024-03-07T04:39:39;6.40;99.90
1594;DHT22;790;47.000;16.084;2024-03-07T04:46:03;6.50;99.90
1594;DHT22;790;47.000;16.084;2024-03-07T04:52:27;6.50;99.90
1594;DHT22;790;47.000;16.084;2024-03-07T04:58:49;6.40;99.90
1594;DHT22;790;47.000;16.084;2024-03-07T05:09:57;6.40;99.90
1594;DHT22;790;47.000;16.084;2024-03-07T05:16:19;6.30;99.90
1594;DHT22;790;47.000;16.084;2024-03-07T05:22:41;6.30;99.90
1594;DHT22;790;47.000;16.084;2024-03-07T05:29:09;6.20;99.90
1594;DHT22;790;47.000;16.084;2024-03-07T05:35:31;6.40;99.90
1594;DHT22;790;47.000;16.084;2024-03-07T05:41:53;6.40;99.90
1594;DHT22;790;47.000;16.084;2024-03-07T05:48:19;6.40;99.90
1594;DHT22;790;47.000;16.084;2024-03-07T05:54:41;6.60;99.90
1594;DHT22;790;47.000;16.084;2024-03-07T06:01:04;6.60;99.90
1594;DHT22;790;47.000;16.084;2024-03-07T06:12:14;6.70;99.90
1594;DHT22;790;47.000;16.084;2024-03-07T06:18:35;6.70;99.90
1594;DHT22;790;47.000;16.084;2024-03-07T06:24:59;6.70;99.90
1594;DHT22;790;47.000;16.084;2024-03-07T06:31:29;6.80;99.90
1594;DHT22;790;47.000;16.084;2024-03-07T06:37:51;6.90;99.90
1594;DHT22;790;47.000;16.084;2024-03-07T06:44:14;7.00;99.90
1594;DHT22;790;47.000;16.084;2024-03-07T06:50:39;7.00;99.90
1594;DHT22;790;47.000;16.084;2024-03-07T06:57:01;7.10;99.90
1594;DHT22;790;47.000;16.084;2024-03-07T07:03:24;7.20;99.90
1594;DHT22;790;47.000;16.084;2024-03-07T07:14:44;7.30;99.90
1594;DHT22;790;47.000;16.084;2024-03-07T07:21:06;7.50;99.90
1594;DHT22;790;47.000;16.084;2024-03-07T07:27:31;7.50;99.90
1594;DHT22;790;47.000;16.084;2024-03-07T07:33:55;7.50;99.90
1594;DHT22;790;47.000;16.084;2024-03-07T07:40:19;7.60;99.90
1594;DHT22;790;47.000;16.084;2024-03-07T07:46:43;7.70;99.90
1594;DHT22;790;47.000;16.084;2024-03-07T07:53:07;7.90;99.90
1594;DHT22;790;47.000;16.084;2024-03-07T07:59:29;7.90;99.90
1594;DHT22;790;47.000;16.084;2024-03-07T08:05:53;8.00;99.90
1594;DHT22;790;47.000;16.084;2024-03-07T08:17:12;7.90;99.90
1594;DHT22;790;47.000;16.084;2024-03-07T08:23:34;7.90;99.90
1594;DHT22;790;47.000;16.084;2024-03-07T08:29:56;8.00;99.90
1594;DHT22;790;47.000;16.084;2024-03-07T08:36:21;7.90;99.90
1594;DHT22;790;47.000;16.084;2024-03-07T08:42:43;8.10;99.90
1594;DHT22;790;47.000;16.084;2024-03-07T08:49:05;8.20;99.90
1594;DHT22;790;47.000;16.084;2024-03-07T08:55:29;8.40;99.90
1594;DHT22;790;47.000;16.084;2024-03-07T09:01:51;8.50;99.90
1594;DHT22;790;47.000;16.084;2024-03-07T09:08:13;8.50;99.90
1594;DHT22;790;47.000;16.084;2024-03-07T09:19:32;8.60;99.90
1594;DHT22;790;47.000;16.084;2024-03-07T09:25:54;8.70;99.90
1594;DHT22;790;47.000;16.084;2024-03-07T09:32:16;8.90;99.90
1594;DHT22;790;47.000;16.084;2024-03-07T09:38:40;9.00;99.90
1594;DHT22;790;47.000;16.084;2024-03-07T09:45:03;8.90;99.90
1594;DHT22;790;47.000;16.084;2024-03-07T09:51:27;9.20;99.90
1594;DHT22;790;47.000;16.084;2024-03-07T09:57:53;9.30;99.90
1594;DHT22;790;47.000;16.084;2024-03-07T10:04:18;9.40;99.90
1594;DHT22;790;47.000;16.084;2024-03-07T10:10:45;9.60;99.90
1594;DHT22;790;47.000;16.084;2024-03-07T10:22:05;9.90;99.90
1594;DHT22;790;47.000;16.084;2024-03-07T10:28:27;10.00;99.90
1594;DHT22;790;47.000;16.084;2024-03-07T10:34:52;10.10;99.90
1594;DHT22;790;47.000;16.084;2024-03-07T10:41:17;10.40;99.90
1594;DHT22;790;47.000;16.084;2024-03-07T10:47:41;10.50;99.90
1594;DHT22;790;47.000;16.084;2024-03-07T10:54:11;10.50;99.90
1594;DHT22;790;47.000;16.084;2024-03-07T11:00:38;10.30;99.90
1594;DHT22;790;47.000;16.084;2024-03-07T11:07:26;10.10;99.90
1594;DHT22;790;47.000;16.084;2024-03-07T11:13:50;9.80;99.90
1594;DHT22;790;47.000;16.084;2024-03-07T11:25:02;10.30;99.90
1594;DHT22;790;47.000;16.084;2024-03-07T11:31:27;10.40;99.90
1594;DHT22;790;47.000;16.084;2024-03-07T11:37:50;10.50;99.90
1594;DHT22;790;47.000;16.084;2024-03-07T11:44:14;10.40;99.90
1594;DHT22;790;47.000;16.084;2024-03-07T11:50:37;10.10;99.90
1594;DHT22;790;47.000;16.084;2024-03-07T11:57:10;10.20;99.90
1594;DHT22;790;47.000;16.084;2024-03-07T12:03:35;10.10;99.90
1594;DHT22;790;47.000;16.084;2024-03-07T12:09:57;10.20;99.90
1594;DHT22;790;47.000;16.084;2024-03-07T12:16:20;10.10;99.90
1594;DHT22;790;47.000;16.084;2024-03-07T12:27:41;10.40;99.90
1594;DHT22;790;47.000;16.084;2024-03-07T12:34:04;10.50;99.90
1594;DHT22;790;47.000;16.084;2024-03-07T12:40:26;10.60;99.70
1594;DHT22;790;47.000;16.084;2024-03-07T12:46:56;10.50;99.50
1594;DHT22;790;47.000;16.084;2024-03-07T12:53:18;10.80;99.00
1594;DHT22;790;47.000;16.084;2024-03-07T12:59:41;10.80;98.10
1594;DHT22;790;47.000;16.084;2024-03-07T13:06:05;10.40;96.90
1594;DHT22;790;47.000;16.084;2024-03-07T13:12:27;10.50;98.50
1594;DHT22;790;47.000;16.084;2024-03-07T13:18:51;10.30;97.90
1594;DHT22;790;47.000;16.084;2024-03-07T13:30:11;10.50;97.70
1594;DHT22;790;47.000;16.084;2024-03-07T13:36:47;10.80;97.60
1594;DHT22;790;47.000;16.084;2024-03-07T13:43:09;10.90;98.80
1594;DHT22;790;47.000;16.084;2024-03-07T13:49:33;10.90;99.10
1594;DHT22;790;47.000;16.084;2024-03-07T14:03:18;10.90;99.40
1594;DHT22;790;47.000;16.084;2024-03-07T14:09:58;10.60;99.80
1594;DHT22;790;47.000;16.084;2024-03-07T14:16:55;10.60;99.90
1594;DHT22;790;47.000;16.084;2024-03-07T14:23:40;10.60;99.90
1594;DHT22;790;47.000;16.084;2024-03-07T14:30:38;10.70;99.90
1594;DHT22;790;47.000;16.084;2024-03-07T14:37:11;10.60;99.90
1594;DHT22;790;47.000;16.084;2024-03-07T14:43:37;10.60;99.90
1594;DHT22;790;47.000;16.084;2024-03-07T14:50:03;10.40;99.90
1594;DHT22;790;47.000;16.084;2024-03-07T14:56:31;10.00;99.10
1594;DHT22;790;47.000;16.084;2024-03-07T15:02:53;9.70;99.90
1594;DHT22;790;47.000;16.084;2024-03-07T15:09:19;9.70;99.90
1594;DHT22;790;47.000;16.084;2024-03-07T15:15:42;9.60;99.90
1594;DHT22;790;47.000;16.084;2024-03-07T15:22:05;9.40;99.90
1594;DHT22;790;47.000;16.084;2024-03-07T15:33:05;9.10;99.90
1594;DHT22;790;47.000;16.084;2024-03-07T15:39:28;9.00;99.90
1594;DHT22;790;47.000;16.084;2024-03-07T15:45:50;9.00;99.90
1594;DHT22;790;47.000;16.084;2024-03-07T15:52:14;9.00;99.90
1594;DHT22;790;47.000;16.084;2024-03-07T15:58:38;8.90;99.90
1594;DHT22;790;47.000;16.084;2024-03-07T16:05:00;8.80;99.90
1594;DHT22;790;47.000;16.084;2024-03-07T16:11:24;8.80;99.90
1594;DHT22;790;47.000;16.084;2024-03-07T16:17:46;8.70;99.90
1594;DHT22;790;47.000;16.084;2024-03-07T16:24:08;8.50;99.90
1594;DHT22;790;47.000;16.084;2024-03-07T16:35:18;8.30;99.90
1594;DHT22;790;47.000;16.084;2024-03-07T16:41:41;8.20;99.90
1594;DHT22;790;47.000;16.084;2024-03-07T16:48:05;7.90;99.90
1594;DHT22;790;47.000;16.084;2024-03-07T16:54:31;7.80;99.90
1594;DHT22;790;47.000;16.084;2024-03-07T17:00:56;7.80;99.90
1594;DHT22;790;47.000;16.084;2024-03-07T17:07:17;7.60;99.90
1594;DHT22;790;47.000;16.084;2024-03-07T17:13:41;7.70;99.90
1594;DHT22;790;47.000;16.084;2024-03-07T17:20:04;7.70;99.90
1594;DHT22;790;47.000;16.084;2024-03-07T17:26:28;7.70;99.90
1594;DHT22;790;47.000;16.084;2024-03-07T17:37:48;7.70;99.90
1594;DHT22;790;47.000;16.084;2024-03-07T17:44:10;7.50;99.90
1594;DHT22;790;47.000;16.084;2024-03-07T17:50:37;7.40;99.90
1594;DHT22;790;47.000;16.084;2024-03-07T17:57:01;7.20;99.90
1594;DHT22;790;47.000;16.084;2024-03-07T18:03:26;7.40;99.90
1594;DHT22;790;47.000;16.084;2024-03-07T18:09:48;7.40;99.90
1594;DHT22;790;47.000;16.084;2024-03-07T18:16:15;7.20;99.90
1594;DHT22;790;47.000;16.084;2024-03-07T18:22:38;7.30;99.90
1594;DHT22;790;47.000;16.084;2024-03-07T18:29:01;7.10;99.90
1594;DHT22;790;47.000;16.084;2024-03-07T18:40:21;7.30;99.90
1594;DHT22;790;47.000;16.084;2024-03-07T18:46:44;7.10;99.90
1594;DHT22;790;47.000;16.084;2024-03-07T18:53:07;6.90;99.90
1594;DHT22;790;47.000;16.084;2024-03-07T18:59:31;6.70;99.90
1594;DHT22;790;47.000;16.084;2024-03-07T19:05:56;6.60;99.90
1594;DHT22;790;47.000;16.084;2024-03-07T19:12:18;6.60;99.90
1594;DHT22;790;47.000;16.084;2024-03-07T19:18:43;6.50;99.90
1594;DHT22;790;47.000;16.084;2024-03-07T19:25:07;6.40;99.90
1594;DHT22;790;47.000;16.084;2024-03-07T19:31:30;6.40;99.90
1594;DHT22;790;47.000;16.084;2024-03-07T19:42:50;6.30;99.90
1594;DHT22;790;47.000;16.084;2024-03-07T19:49:56;6.40;99.90
1594;DHT22;790;47.000;16.084;2024-03-07T19:56:19;6.40;99.90
1594;DHT22;790;47.000;16.084;2024-03-07T20:02:43;6.30;99.90
1594;DHT22;790;47.000;16.084;2024-03-07T20:09:07;6.40;99.90
1594;DHT22;790;47.000;16.084;2024-03-07T20:15:37;6.40;99.90
1594;DHT22;790;47.000;16.084;2024-03-07T20:22:00;6.50;99.90
1594;DHT22;790;47.000;16.084;2024-03-07T20:28:24;6.50;99.90
1594;DHT22;790;47.000;16.084;2024-03-07T20:34:47;6.60;99.90
1594;DHT22;790;47.000;16.084;2024-03-07T20:41:09;6.30;99.90
1594;DHT22;790;47.000;16.084;2024-03-07T20:52:28;6.20;99.90
1594;DHT22;790;47.000;16.084;2024-03-07T20:58:50;5.90;99.90
1594;DHT22;790;47.000;16.084;2024-03-07T21:05:12;5.80;99.90
1594;DHT22;790;47.000;16.084;2024-03-07T21:11:38;5.70;99.90
1594;DHT22;790;47.000;16.084;2024-03-07T21:18:00;5.70;99.90
1594;DHT22;790;47.000;16.084;2024-03-07T21:24:25;5.50;99.90
1594;DHT22;790;47.000;16.084;2024-03-07T21:30:49;5.50;99.90
1594;DHT22;790;47.000;16.084;2024-03-07T21:37:13;5.50;99.90
1594;DHT22;790;47.000;16.084;2024-03-07T21:43:37;5.40;99.90
1594;DHT22;790;47.000;16.084;2024-03-07T21:54:55;5.30;99.90
1594;DHT22;790;47.000;16.084;2024-03-07T22:01:18;5.10;99.90
1594;DHT22;790;47.000;16.084;2024-03-07T22:08:10;5.40;99.90
1594;DHT22;790;47.000;16.084;2024-03-07T22:14:34;5.40;99.90
1594;DHT22;790;47.000;16.084;2024-03-07T22:20:58;5.30;99.90
1594;DHT22;790;47.000;16.084;2024-03-07T22:27:21;5.20;99.90
1594;DHT22;790;47.000;16.084;2024-03-07T22:33:44;5.20;99.90
1594;DHT22;790;47.000;16.084;2024-03-07T22:40:09;5.00;99.90
1594;DHT22;790;47.000;16.084;2024-03-07T22:46:32;5.00;99.90
1594;DHT22;790;47.000;16.084;2024-03-07T22:57:51;5.10;99.90
1594;DHT22;790;47.000;16.084;2024-03-07T23:04:14;5.10;99.90
1594;DHT22;790;47.000;16.084;2024-03-07T23:10:36;5.10;99.90
1594;DHT22;790;47.000;16.084;2024-03-07T23:17:00;5.10;99.90
1594;DHT22;790;47.000;16.084;2024-03-07T23:23:22;5.10;99.90
1594;DHT22;790;47.000;16.084;2024-03-07T23:29:44;5.30;99.90
1594;DHT22;790;47.000;16.084;2024-03-07T23:36:08;5.20;99.90
1594;DHT22;790;47.000;16.084;2024-03-07T23:42:32;5.40;99.90
1594;DHT22;790;47.000;16.084;2024-03-07T23:48:55;5.30;99.90
